Time;durP1;ratioP1;P1;durP2;ratioP2;P2;SDS_P1;SDS_P2;PMS_P1;PMS_P2;Temp;Humidity;BMP_temperature;BMP_pressure;BME280_temperature;BME280_humidity;BME280_pressure;Samples;Min_cycle;Max_cycle;Signal;HPM_P1;HPM_P2
2022/08/20 00:01:30;;;;;;;1.90;1.80;;;;;;;;;;5049243;28;20286;-55
2022/08/20 00:03:56;;;;;;;2.10;2.00;;;;;;;;;;5038777;28;20236;-55
2022/08/20 00:06:22;;;;;;;2.00;1.90;;;;;;;;;;5047706;28;20227;-55
2022/08/20 00:08:48;;;;;;;1.60;1.60;;;;;;;;;;5042460;28;20577;-55
2022/08/20 00:11:19;;;;;;;2.23;2.13;;;;;;;;;;5031192;28;20222;-55
2022/08/20 00:13:46;;;;;;;2.07;1.97;;;;;;;;;;5038055;28;20263;-55
2022/08/20 00:16:12;;;;;;;1.63;1.63;;;;;;;;;;5025626;28;20228;-55
2022/08/20 00:18:38;;;;;;;2.00;1.90;;;;;;;;;;5044402;28;20231;-55
2022/08/20 00:21:05;;;;;;;1.70;1.70;;;;;;;;;;5045987;28;20299;-55
2022/08/20 00:23:31;;;;;;;1.90;1.80;;;;;;;;;;5030160;28;20327;-55
2022/08/20 00:25:57;;;;;;;1.60;1.60;;;;;;;;;;5040013;28;20220;-55
2022/08/20 00:28:22;;;;;;;1.97;1.87;;;;;;;;;;5042072;28;20273;-56
2022/08/20 00:30:48;;;;;;;2.00;1.90;;;;;;;;;;5043295;28;20228;-55
2022/08/20 00:33:18;;;;;;;1.90;1.80;;;;;;;;;;5036209;28;20700;-55
2022/08/20 00:35:46;;;;;;;1.70;1.70;;;;;;;;;;5046410;28;20226;-55
2022/08/20 00:38:12;;;;;;;1.80;1.70;;;;;;;;;;5040174;28;20286;-55
2022/08/20 00:40:39;;;;;;;1.90;1.80;;;;;;;;;;5035395;28;20224;-55
2022/08/20 00:43:06;;;;;;;2.17;2.07;;;;;;;;;;5048620;28;20231;-56
2022/08/20 00:45:32;;;;;;;2.10;2.00;;;;;;;;;;5041937;28;20231;-55
2022/08/20 00:47:58;;;;;;;1.90;1.80;;;;;;;;;;5045390;28;20212;-55
2022/08/20 00:50:31;;;;;;;1.97;1.87;;;;;;;;;;5043275;28;20569;-55
2022/08/20 00:52:57;;;;;;;1.80;1.70;;;;;;;;;;5034946;28;20246;-55
2022/08/20 00:55:23;;;;;;;1.87;1.77;;;;;;;;;;5026256;28;20259;-55
2022/08/20 00:57:52;;;;;;;1.70;1.70;;;;;;;;;;5038974;28;20215;-55
2022/08/20 01:00:21;;;;;;;1.80;1.70;;;;;;;;;;5033746;28;20310;-56
2022/08/20 01:02:47;;;;;;;2.03;1.93;;;;;;;;;;5040494;28;20223;-55
2022/08/20 01:05:13;;;;;;;1.80;1.70;;;;;;;;;;5034183;28;20270;-55
2022/08/20 01:07:39;;;;;;;1.90;1.80;;;;;;;;;;5040664;28;20267;-55
2022/08/20 01:10:09;;;;;;;2.07;1.97;;;;;;;;;;5046139;28;21927;-55
2022/08/20 01:12:35;;;;;;;2.10;2.00;;;;;;;;;;5040599;28;20255;-55
2022/08/20 01:15:02;;;;;;;2.30;2.20;;;;;;;;;;5051747;28;20672;-56
2022/08/20 01:17:28;;;;;;;1.73;1.70;;;;;;;;;;5032968;28;20262;-55
2022/08/20 01:19:59;;;;;;;1.93;1.83;;;;;;;;;;5044012;28;20768;-55
2022/08/20 01:25:14;;;;;;;1.67;1.63;;;;;;;;;;5032525;28;20244;-55
2022/08/20 01:27:40;;;;;;;1.83;1.73;;;;;;;;;;5031790;28;20235;-55
2022/08/20 01:30:07;;;;;;;1.87;1.77;;;;;;;;;;5053338;28;20228;-55
2022/08/20 01:32:33;;;;;;;1.97;1.87;;;;;;;;;;5043758;28;20219;-55
2022/08/20 01:34:59;;;;;;;1.60;1.60;;;;;;;;;;5049978;28;20223;-55
2022/08/20 01:37:24;;;;;;;1.90;1.80;;;;;;;;;;5047738;28;20238;-55
2022/08/20 01:39:50;;;;;;;1.67;1.67;;;;;;;;;;5039968;28;20251;-56
2022/08/20 01:42:34;;;;;;;1.60;1.60;;;;;;;;;;5047639;28;20224;-56
2022/08/20 01:45:00;;;;;;;1.83;1.73;;;;;;;;;;5034852;28;20830;-55
2022/08/20 01:47:27;;;;;;;1.97;1.87;;;;;;;;;;5042134;28;20219;-55
2022/08/20 01:49:55;;;;;;;1.60;1.60;;;;;;;;;;5041454;28;20219;-55
2022/08/20 01:52:31;;;;;;;1.90;1.80;;;;;;;;;;5045466;28;20763;-55
2022/08/20 01:54:57;;;;;;;1.63;1.63;;;;;;;;;;5027197;28;20232;-55
2022/08/20 01:57:25;;;;;;;1.90;1.80;;;;;;;;;;5039539;28;20223;-56
2022/08/20 01:59:51;;;;;;;1.60;1.60;;;;;;;;;;5039120;28;20621;-56
2022/08/20 02:02:17;;;;;;;1.80;1.70;;;;;;;;;;5045072;28;20281;-56
2022/08/20 02:04:43;;;;;;;1.90;1.80;;;;;;;;;;5043058;28;20221;-55
2022/08/20 02:07:12;;;;;;;1.70;1.70;;;;;;;;;;5035320;28;20235;-56
2022/08/20 02:09:38;;;;;;;1.87;1.77;;;;;;;;;;5037281;28;20232;-55
2022/08/20 02:12:05;;;;;;;1.90;1.80;;;;;;;;;;5049110;28;20219;-55
2022/08/20 02:14:31;;;;;;;1.80;1.70;;;;;;;;;;5040485;28;20308;-55
2022/08/20 02:16:57;;;;;;;2.00;1.90;;;;;;;;;;5045698;28;20290;-56
2022/08/20 02:19:25;;;;;;;2.10;2.00;;;;;;;;;;5031280;28;21176;-55
2022/08/20 02:21:52;;;;;;;1.60;1.60;;;;;;;;;;5029949;28;20231;-55
2022/08/20 02:24:19;;;;;;;1.67;1.67;;;;;;;;;;5047251;28;20591;-55
2022/08/20 02:26:45;;;;;;;1.90;1.80;;;;;;;;;;5045221;28;20236;-55
2022/08/20 02:29:11;;;;;;;2.10;2.00;;;;;;;;;;5035013;28;20552;-56
2022/08/20 02:31:37;;;;;;;2.10;2.00;;;;;;;;;;5041003;28;20568;-56
2022/08/20 02:34:04;;;;;;;2.00;1.90;;;;;;;;;;5050091;28;20227;-56
2022/08/20 02:36:30;;;;;;;1.90;1.80;;;;;;;;;;5033565;28;20684;-55
2022/08/20 02:38:56;;;;;;;1.83;1.73;;;;;;;;;;5032047;28;20236;-55
2022/08/20 02:41:22;;;;;;;1.73;1.70;;;;;;;;;;5047547;28;20275;-55
2022/08/20 02:43:50;;;;;;;1.80;1.70;;;;;;;;;;5044244;28;20348;-56
2022/08/20 02:46:17;;;;;;;1.90;1.80;;;;;;;;;;5038588;28;20647;-56
2022/08/20 02:48:43;;;;;;;1.90;1.80;;;;;;;;;;5038801;28;20224;-55
2022/08/20 02:51:09;;;;;;;2.00;1.90;;;;;;;;;;5041423;28;20274;-56
2022/08/20 02:53:36;;;;;;;2.00;1.90;;;;;;;;;;5046694;28;20311;-55
2022/08/20 02:56:02;;;;;;;1.60;1.60;;;;;;;;;;5039506;28;20249;-55
2022/08/20 02:58:28;;;;;;;1.70;1.70;;;;;;;;;;5019767;28;20228;-55
2022/08/20 03:00:55;;;;;;;1.90;1.80;;;;;;;;;;5049308;28;20711;-55
2022/08/20 03:03:23;;;;;;;2.00;1.90;;;;;;;;;;5044554;28;20232;-56
2022/08/20 03:05:49;;;;;;;1.70;1.70;;;;;;;;;;5043288;28;20712;-55
2022/08/20 03:08:15;;;;;;;2.00;1.90;;;;;;;;;;5044821;28;20211;-56
2022/08/20 03:10:42;;;;;;;1.93;1.83;;;;;;;;;;5041033;28;20265;-56
2022/08/20 03:13:11;;;;;;;1.90;1.80;;;;;;;;;;5053056;28;20278;-56
2022/08/20 03:15:38;;;;;;;1.93;1.83;;;;;;;;;;5030055;28;20270;-55
2022/08/20 03:18:04;;;;;;;1.80;1.70;;;;;;;;;;5038265;28;20232;-56
2022/08/20 03:20:30;;;;;;;2.00;1.90;;;;;;;;;;5043163;28;20284;-55
2022/08/20 03:22:56;;;;;;;1.90;1.80;;;;;;;;;;5044861;28;20228;-55
2022/08/20 03:25:22;;;;;;;1.93;1.83;;;;;;;;;;5029629;28;20232;-56
2022/08/20 03:27:48;;;;;;;2.10;2.00;;;;;;;;;;5046784;28;20621;-55
2022/08/20 03:30:14;;;;;;;1.90;1.80;;;;;;;;;;5041972;28;20638;-56
2022/08/20 03:32:40;;;;;;;2.10;2.00;;;;;;;;;;5044353;28;20212;-55
2022/08/20 03:35:07;;;;;;;2.10;2.00;;;;;;;;;;5034540;28;20234;-55
2022/08/20 03:37:33;;;;;;;2.17;2.07;;;;;;;;;;5029128;28;20796;-54
2022/08/20 03:39:59;;;;;;;1.90;1.80;;;;;;;;;;5037274;28;20252;-55
2022/08/20 03:42:25;;;;;;;1.60;1.60;;;;;;;;;;5033372;28;20315;-55
2022/08/20 03:44:52;;;;;;;1.90;1.80;;;;;;;;;;5043907;28;20927;-55
2022/08/20 03:47:18;;;;;;;1.83;1.73;;;;;;;;;;5051093;28;20647;-55
2022/08/20 03:49:44;;;;;;;1.60;1.60;;;;;;;;;;5051456;28;21415;-55
2022/08/20 03:52:09;;;;;;;1.87;1.77;;;;;;;;;;5050733;28;20361;-55
2022/08/20 03:54:35;;;;;;;1.90;1.80;;;;;;;;;;5051232;28;20226;-55
2022/08/20 03:57:01;;;;;;;1.60;1.60;;;;;;;;;;5041025;28;20238;-55
2022/08/20 03:59:28;;;;;;;1.70;1.70;;;;;;;;;;5039787;28;20305;-55
2022/08/20 04:01:54;;;;;;;1.60;1.60;;;;;;;;;;5040126;28;20663;-55
2022/08/20 04:04:20;;;;;;;1.60;1.60;;;;;;;;;;5045980;28;20235;-55
2022/08/20 04:06:46;;;;;;;1.80;1.70;;;;;;;;;;5046633;28;20232;-55
2022/08/20 04:09:13;;;;;;;1.60;1.60;;;;;;;;;;5041047;28;20216;-55
2022/08/20 04:11:41;;;;;;;1.50;1.50;;;;;;;;;;5042781;28;20259;-55
2022/08/20 04:14:08;;;;;;;1.60;1.60;;;;;;;;;;5047981;28;20749;-55
2022/08/20 04:16:34;;;;;;;1.90;1.80;;;;;;;;;;5046125;28;20222;-55
2022/08/20 04:19:02;;;;;;;1.70;1.70;;;;;;;;;;5046581;28;20691;-55
2022/08/20 04:21:28;;;;;;;1.50;1.50;;;;;;;;;;5049677;28;20320;-55
2022/08/20 04:23:55;;;;;;;1.80;1.70;;;;;;;;;;5046943;28;20231;-55
2022/08/20 04:26:21;;;;;;;1.60;1.60;;;;;;;;;;5042185;28;20234;-55
2022/08/20 04:28:48;;;;;;;1.50;1.50;;;;;;;;;;5034405;28;20712;-54
2022/08/20 04:31:16;;;;;;;1.57;1.57;;;;;;;;;;5044929;28;20774;-55
2022/08/20 04:33:43;;;;;;;1.50;1.50;;;;;;;;;;5050380;28;20220;-55
2022/08/20 04:36:08;;;;;;;1.50;1.50;;;;;;;;;;5037690;28;20323;-55
2022/08/20 04:38:34;;;;;;;1.60;1.60;;;;;;;;;;5049043;28;20306;-55
2022/08/20 04:41:00;;;;;;;1.40;1.40;;;;;;;;;;5046474;28;20803;-55
2022/08/20 04:43:32;;;;;;;1.77;1.70;;;;;;;;;;5048020;28;20240;-55
2022/08/20 04:45:58;;;;;;;1.50;1.50;;;;;;;;;;5038125;28;20219;-56
2022/08/20 04:48:24;;;;;;;1.97;1.87;;;;;;;;;;5045879;28;20266;-55
2022/08/20 04:50:51;;;;;;;1.50;1.50;;;;;;;;;;5041520;28;20268;-55
2022/08/20 04:53:17;;;;;;;1.73;1.70;;;;;;;;;;5044764;28;20216;-55
2022/08/20 04:55:44;;;;;;;1.70;1.70;;;;;;;;;;5036892;28;20278;-55
2022/08/20 04:58:15;;;;;;;1.40;1.40;;;;;;;;;;5045307;28;20223;-55
2022/08/20 05:00:41;;;;;;;1.50;1.50;;;;;;;;;;5041981;28;20815;-55
2022/08/20 05:03:07;;;;;;;1.77;1.70;;;;;;;;;;5027755;28;20231;-55
2022/08/20 05:05:37;;;;;;;1.40;1.40;;;;;;;;;;5045203;28;20221;-56
2022/08/20 05:08:03;;;;;;;1.50;1.50;;;;;;;;;;5035960;28;20250;-55
2022/08/20 05:10:29;;;;;;;1.70;1.70;;;;;;;;;;5051010;28;20247;-56
2022/08/20 05:12:55;;;;;;;1.83;1.73;;;;;;;;;;5036458;28;20262;-55
2022/08/20 05:15:23;;;;;;;1.50;1.50;;;;;;;;;;5047978;28;20233;-56
2022/08/20 05:17:53;;;;;;;1.67;1.63;;;;;;;;;;5045757;28;21138;-55
2022/08/20 05:20:19;;;;;;;1.50;1.50;;;;;;;;;;5042833;28;20631;-55
2022/08/20 05:22:45;;;;;;;1.40;1.40;;;;;;;;;;5040047;28;20397;-55
2022/08/20 05:25:11;;;;;;;1.90;1.80;;;;;;;;;;5044010;28;20229;-55
2022/08/20 05:27:38;;;;;;;1.40;1.40;;;;;;;;;;5045682;28;20536;-55
2022/08/20 05:30:08;;;;;;;1.60;1.60;;;;;;;;;;5041518;28;20434;-56
2022/08/20 05:32:34;;;;;;;1.50;1.50;;;;;;;;;;5040384;28;20731;-56
2022/08/20 05:35:01;;;;;;;1.97;1.87;;;;;;;;;;5045285;28;20230;-56
2022/08/20 05:37:28;;;;;;;1.50;1.50;;;;;;;;;;5045298;28;20643;-56
2022/08/20 05:39:54;;;;;;;1.40;1.40;;;;;;;;;;5041893;28;20232;-56
2022/08/20 05:42:20;;;;;;;1.40;1.40;;;;;;;;;;5041027;28;20232;-56
2022/08/20 05:44:46;;;;;;;1.40;1.40;;;;;;;;;;5041221;28;20223;-56
2022/08/20 05:47:12;;;;;;;1.50;1.50;;;;;;;;;;5042258;28;20265;-55
2022/08/20 05:49:38;;;;;;;1.50;1.50;;;;;;;;;;5025675;28;21237;-55
2022/08/20 05:52:04;;;;;;;1.57;1.57;;;;;;;;;;5036722;28;20228;-56
2022/08/20 05:54:31;;;;;;;1.50;1.50;;;;;;;;;;5035365;28;20724;-55
2022/08/20 05:56:57;;;;;;;1.50;1.50;;;;;;;;;;5047803;28;20953;-55
2022/08/20 05:59:23;;;;;;;1.70;1.70;;;;;;;;;;5038416;28;20243;-56
2022/08/20 06:01:49;;;;;;;2.00;1.90;;;;;;;;;;5037374;28;20227;-56
2022/08/20 06:04:26;;;;;;;1.90;1.80;;;;;;;;;;5045824;28;20322;-56
2022/08/20 06:06:53;;;;;;;2.40;2.30;;;;;;;;;;5052596;28;20298;-56
2022/08/20 06:09:20;;;;;;;2.50;2.40;;;;;;;;;;5048439;28;20223;-56
2022/08/20 06:11:46;;;;;;;1.60;1.60;;;;;;;;;;5040860;28;20292;-56
2022/08/20 06:14:12;;;;;;;1.70;1.70;;;;;;;;;;5056210;28;20727;-56
2022/08/20 06:16:38;;;;;;;1.50;1.50;;;;;;;;;;5035738;28;20732;-56
2022/08/20 06:19:04;;;;;;;1.50;1.50;;;;;;;;;;5035650;28;20539;-56
2022/08/20 06:21:30;;;;;;;1.30;1.30;;;;;;;;;;5034798;28;20216;-56
2022/08/20 06:23:56;;;;;;;1.50;1.50;;;;;;;;;;5041486;28;20230;-55
2022/08/20 06:26:22;;;;;;;1.60;1.60;;;;;;;;;;5036977;28;20611;-55
2022/08/20 06:28:48;;;;;;;1.60;1.60;;;;;;;;;;5044531;28;20230;-56
2022/08/20 06:31:14;;;;;;;1.50;1.50;;;;;;;;;;5033546;28;20219;-56
2022/08/20 06:33:41;;;;;;;1.50;1.50;;;;;;;;;;5044028;28;20220;-56
2022/08/20 06:36:07;;;;;;;1.77;1.70;;;;;;;;;;5032639;28;20335;-56
2022/08/20 06:38:33;;;;;;;1.60;1.60;;;;;;;;;;5041198;28;20221;-55
2022/08/20 06:40:59;;;;;;;1.70;1.70;;;;;;;;;;5037306;28;20306;-55
2022/08/20 06:43:25;;;;;;;1.57;1.57;;;;;;;;;;5044429;28;20256;-56
2022/08/20 06:45:51;;;;;;;1.40;1.40;;;;;;;;;;5046531;28;20223;-56
2022/08/20 06:48:17;;;;;;;1.50;1.50;;;;;;;;;;5043441;28;20665;-56
2022/08/20 06:50:44;;;;;;;1.70;1.70;;;;;;;;;;5048126;28;20299;-55
2022/08/20 06:53:11;;;;;;;1.40;1.40;;;;;;;;;;5025437;28;20219;-56
2022/08/20 06:55:37;;;;;;;1.50;1.50;;;;;;;;;;5046780;28;20220;-55
2022/08/20 06:58:04;;;;;;;1.50;1.50;;;;;;;;;;5046400;28;20247;-56
2022/08/20 07:00:32;;;;;;;1.60;1.60;;;;;;;;;;5034959;28;20715;-56
2022/08/20 07:02:59;;;;;;;1.40;1.40;;;;;;;;;;5048428;28;20238;-56
2022/08/20 07:05:26;;;;;;;1.60;1.60;;;;;;;;;;5044829;28;20299;-55
2022/08/20 07:07:52;;;;;;;1.50;1.50;;;;;;;;;;5049574;28;20221;-56
2022/08/20 07:10:18;;;;;;;1.80;1.70;;;;;;;;;;5035616;28;20240;-55
2022/08/20 07:12:45;;;;;;;1.50;1.50;;;;;;;;;;5033271;28;20688;-55
2022/08/20 07:15:11;;;;;;;1.80;1.70;;;;;;;;;;5034480;28;20661;-56
2022/08/20 07:17:37;;;;;;;1.60;1.60;;;;;;;;;;5041559;28;20411;-55
2022/08/20 07:20:07;;;;;;;1.50;1.50;;;;;;;;;;5042080;28;20232;-56
2022/08/20 07:22:35;;;;;;;1.50;1.50;;;;;;;;;;5032796;28;20764;-56
2022/08/20 07:25:03;;;;;;;1.63;1.60;;;;;;;;;;5046926;28;20251;-55
2022/08/20 07:27:29;;;;;;;1.77;1.70;;;;;;;;;;5036097;28;20299;-55
2022/08/20 07:32:40;;;;;;;1.50;1.50;;;;;;;;;;5043318;28;21905;-55
2022/08/20 07:35:07;;;;;;;1.40;1.40;;;;;;;;;;5052996;28;20635;-55
2022/08/20 07:37:36;;;;;;;1.63;1.63;;;;;;;;;;5052650;28;20231;-56
2022/08/20 07:40:02;;;;;;;1.40;1.40;;;;;;;;;;5043953;28;20247;-55
2022/08/20 07:42:30;;;;;;;1.60;1.60;;;;;;;;;;5035946;28;20760;-55
2022/08/20 07:44:56;;;;;;;1.47;1.47;;;;;;;;;;5042302;28;20283;-56
2022/08/20 07:47:22;;;;;;;1.50;1.50;;;;;;;;;;5046583;28;20274;-55
2022/08/20 07:49:48;;;;;;;1.40;1.40;;;;;;;;;;5050789;28;20689;-56
2022/08/20 07:52:14;;;;;;;1.40;1.40;;;;;;;;;;5053667;28;20219;-56
2022/08/20 07:54:41;;;;;;;1.40;1.40;;;;;;;;;;5050408;28;20231;-55
2022/08/20 07:57:10;;;;;;;1.50;1.50;;;;;;;;;;5045859;28;20215;-55
2022/08/20 07:59:36;;;;;;;1.50;1.50;;;;;;;;;;5037013;28;20231;-55
2022/08/20 08:02:02;;;;;;;1.77;1.70;;;;;;;;;;5049766;28;20255;-55
2022/08/20 08:04:28;;;;;;;1.40;1.40;;;;;;;;;;5028059;28;20219;-55
2022/08/20 08:06:56;;;;;;;1.45;1.45;;;;;;;;;;5038748;28;20616;-55
2022/08/20 08:09:22;;;;;;;1.60;1.60;;;;;;;;;;5038402;28;20279;-55
2022/08/20 08:11:49;;;;;;;1.50;1.50;;;;;;;;;;5042060;28;20704;-55
2022/08/20 08:14:17;;;;;;;1.35;1.35;;;;;;;;;;5039129;28;20228;-55
2022/08/20 08:16:44;;;;;;;1.50;1.50;;;;;;;;;;5040607;28;20682;-55
2022/08/20 08:19:10;;;;;;;1.60;1.60;;;;;;;;;;5045358;28;20230;-55
2022/08/20 08:21:36;;;;;;;1.83;1.73;;;;;;;;;;5037770;28;20232;-55
2022/08/20 08:24:03;;;;;;;1.50;1.50;;;;;;;;;;5047859;28;20233;-55
2022/08/20 08:26:29;;;;;;;1.52;1.52;;;;;;;;;;5044233;28;20220;-55
2022/08/20 08:28:55;;;;;;;1.50;1.50;;;;;;;;;;5050245;28;20222;-55
2022/08/20 08:31:21;;;;;;;1.60;1.60;;;;;;;;;;5039780;28;20219;-56
2022/08/20 08:33:47;;;;;;;1.60;1.60;;;;;;;;;;5042298;28;20223;-55
2022/08/20 08:36:14;;;;;;;1.70;1.70;;;;;;;;;;5038982;28;20593;-55
2022/08/20 08:38:43;;;;;;;1.80;1.70;;;;;;;;;;5040156;28;20649;-55
2022/08/20 08:41:19;;;;;;;1.70;1.60;;;;;;;;;;5048265;28;20219;-55
2022/08/20 08:43:46;;;;;;;1.65;1.65;;;;;;;;;;5041908;28;20353;-56
2022/08/20 08:46:12;;;;;;;1.85;1.75;;;;;;;;;;5028673;28;20226;-55
2022/08/20 08:48:42;;;;;;;1.60;1.60;;;;;;;;;;5048820;28;20238;-55
2022/08/20 08:51:10;;;;;;;2.08;1.98;;;;;;;;;;5030928;28;20313;-55
2022/08/20 08:53:37;;;;;;;1.73;1.70;;;;;;;;;;5031074;28;20276;-56
2022/08/20 08:56:04;;;;;;;1.55;1.55;;;;;;;;;;5045301;28;20227;-55
2022/08/20 08:58:32;;;;;;;1.90;1.80;;;;;;;;;;5047619;28;20807;-55
2022/08/20 09:00:59;;;;;;;1.90;1.80;;;;;;;;;;5048211;28;20225;-56
2022/08/20 09:03:28;;;;;;;1.90;1.80;;;;;;;;;;5030179;28;20698;-56
2022/08/20 09:05:55;;;;;;;2.00;1.90;;;;;;;;;;5041569;28;20590;-56
2022/08/20 09:08:32;;;;;;;2.00;1.90;;;;;;;;;;5045490;28;20254;-56
2022/08/20 09:11:03;;;;;;;2.00;1.90;;;;;;;;;;5046986;28;20243;-56
2022/08/20 09:13:29;;;;;;;2.13;2.03;;;;;;;;;;5041414;28;20241;-55
2022/08/20 09:15:55;;;;;;;2.00;1.90;;;;;;;;;;5040157;28;20220;-56
2022/08/20 09:18:21;;;;;;;1.90;1.80;;;;;;;;;;5042342;28;20232;-56
2022/08/20 09:20:46;;;;;;;1.90;1.80;;;;;;;;;;5054443;28;20217;-55
2022/08/20 09:23:13;;;;;;;1.85;1.75;;;;;;;;;;5055298;28;20282;-56
2022/08/20 09:25:39;;;;;;;1.90;1.80;;;;;;;;;;5056566;28;20263;-55
2022/08/20 09:28:05;;;;;;;2.10;2.00;;;;;;;;;;5049585;28;20630;-56
2022/08/20 09:30:31;;;;;;;1.90;1.80;;;;;;;;;;5045350;28;20227;-55
2022/08/20 09:32:58;;;;;;;2.08;1.98;;;;;;;;;;5046869;28;20234;-55
2022/08/20 09:35:24;;;;;;;2.08;1.98;;;;;;;;;;5039850;28;20225;-56
2022/08/20 09:37:51;;;;;;;2.40;2.30;;;;;;;;;;5049571;28;20321;-55
2022/08/20 09:40:18;;;;;;;1.95;1.85;;;;;;;;;;5045047;28;20219;-56
2022/08/20 09:42:43;;;;;;;1.90;1.80;;;;;;;;;;5049173;28;20216;-56
2022/08/20 09:45:10;;;;;;;2.00;1.90;;;;;;;;;;5046397;28;20630;-56
2022/08/20 09:47:37;;;;;;;2.10;2.00;;;;;;;;;;5039931;28;20239;-56
2022/08/20 09:50:03;;;;;;;2.05;1.95;;;;;;;;;;5042982;28;20216;-56
2022/08/20 09:52:33;;;;;;;1.90;1.80;;;;;;;;;;5040088;28;20309;-56
2022/08/20 09:55:01;;;;;;;2.05;1.95;;;;;;;;;;5038717;28;20236;-56
2022/08/20 09:57:27;;;;;;;2.13;2.03;;;;;;;;;;5040884;28;20217;-56
2022/08/20 10:00:04;;;;;;;1.90;1.80;;;;;;;;;;5042125;28;20251;-56
2022/08/20 10:02:30;;;;;;;2.00;1.90;;;;;;;;;;5043858;28;20230;-56
2022/08/20 10:04:56;;;;;;;1.90;1.80;;;;;;;;;;5037743;28;20688;-56
2022/08/20 10:07:22;;;;;;;1.90;1.80;;;;;;;;;;5048460;28;20712;-56
2022/08/20 10:09:48;;;;;;;1.90;1.80;;;;;;;;;;5041273;28;20592;-56
2022/08/20 10:12:14;;;;;;;1.70;1.70;;;;;;;;;;5049015;28;20227;-56
2022/08/20 10:14:40;;;;;;;1.80;1.70;;;;;;;;;;5044115;28;20224;-56
2022/08/20 10:17:06;;;;;;;1.88;1.77;;;;;;;;;;5040393;28;20224;-56
2022/08/20 10:19:32;;;;;;;1.88;1.77;;;;;;;;;;5051395;28;20691;-56
2022/08/20 10:21:58;;;;;;;1.65;1.65;;;;;;;;;;5042218;28;20289;-56
2022/08/20 10:24:24;;;;;;;1.90;1.80;;;;;;;;;;5043593;28;20225;-56
2022/08/20 10:26:53;;;;;;;1.83;1.73;;;;;;;;;;5044474;28;20227;-56
2022/08/20 10:29:19;;;;;;;1.60;1.60;;;;;;;;;;5032184;28;20255;-56
2022/08/20 10:31:45;;;;;;;2.00;1.90;;;;;;;;;;5048981;28;20256;-56
2022/08/20 10:34:11;;;;;;;1.95;1.85;;;;;;;;;;5045958;28;20222;-56
2022/08/20 10:36:37;;;;;;;2.17;2.08;;;;;;;;;;5046944;28;20266;-56
2022/08/20 10:39:03;;;;;;;1.90;1.80;;;;;;;;;;5045604;28;21245;-56
2022/08/20 10:41:29;;;;;;;1.80;1.70;;;;;;;;;;5038063;28;20222;-56
2022/08/20 10:43:55;;;;;;;1.60;1.60;;;;;;;;;;5040924;28;20236;-56
2022/08/20 10:46:21;;;;;;;2.00;1.90;;;;;;;;;;5037810;28;20271;-56
2022/08/20 10:48:47;;;;;;;1.77;1.70;;;;;;;;;;5034063;28;21043;-56
2022/08/20 10:51:13;;;;;;;1.60;1.60;;;;;;;;;;5029436;28;20277;-56
2022/08/20 10:53:39;;;;;;;1.90;1.80;;;;;;;;;;5035054;28;20748;-56
2022/08/20 10:56:05;;;;;;;1.85;1.75;;;;;;;;;;5030069;28;20707;-56
2022/08/20 10:58:31;;;;;;;1.88;1.77;;;;;;;;;;5034679;28;20705;-56
2022/08/20 11:00:57;;;;;;;1.90;1.80;;;;;;;;;;5048111;28;20219;-55
2022/08/20 11:03:23;;;;;;;1.98;1.88;;;;;;;;;;5047371;28;21317;-57
2022/08/20 11:05:49;;;;;;;1.80;1.70;;;;;;;;;;5044769;28;20763;-56
2022/08/20 11:08:15;;;;;;;1.90;1.80;;;;;;;;;;5046489;28;20223;-56
2022/08/20 11:10:41;;;;;;;2.00;1.90;;;;;;;;;;5046122;28;20250;-56
2022/08/20 11:13:07;;;;;;;1.83;1.73;;;;;;;;;;5035595;28;20219;-56
2022/08/20 11:15:35;;;;;;;1.83;1.73;;;;;;;;;;5040522;28;20222;-56
2022/08/20 11:18:01;;;;;;;1.90;1.80;;;;;;;;;;5031438;28;20275;-56
2022/08/20 11:20:27;;;;;;;2.17;2.08;;;;;;;;;;5032498;28;20223;-56
2022/08/20 11:22:53;;;;;;;2.00;1.90;;;;;;;;;;5046706;28;20220;-56
2022/08/20 11:25:19;;;;;;;2.08;1.98;;;;;;;;;;5040974;28;20279;-56
2022/08/20 11:27:46;;;;;;;2.05;1.95;;;;;;;;;;5029736;28;20224;-56
2022/08/20 11:30:14;;;;;;;2.00;1.90;;;;;;;;;;5043842;28;20297;-56
2022/08/20 11:32:39;;;;;;;1.90;1.80;;;;;;;;;;5048608;28;20223;-56
2022/08/20 11:35:06;;;;;;;2.00;1.90;;;;;;;;;;5046724;28;20230;-56
2022/08/20 11:37:32;;;;;;;1.90;1.80;;;;;;;;;;5045752;28;20613;-56
2022/08/20 11:39:58;;;;;;;1.90;1.80;;;;;;;;;;5052441;28;20243;-55
2022/08/20 11:42:23;;;;;;;1.90;1.80;;;;;;;;;;5044680;28;21470;-56
2022/08/20 11:44:49;;;;;;;1.90;1.80;;;;;;;;;;5040277;28;20226;-57
2022/08/20 11:47:20;;;;;;;1.90;1.80;;;;;;;;;;5039438;28;20228;-56
2022/08/20 11:49:46;;;;;;;1.90;1.80;;;;;;;;;;5049914;28;20239;-56
2022/08/20 11:52:12;;;;;;;2.00;1.90;;;;;;;;;;5045348;28;20223;-56
2022/08/20 11:54:39;;;;;;;1.60;1.60;;;;;;;;;;5043491;28;20243;-56
2022/08/20 11:57:05;;;;;;;1.85;1.75;;;;;;;;;;5046435;28;20224;-56
2022/08/20 11:59:31;;;;;;;1.90;1.80;;;;;;;;;;5049990;28;20277;-56
2022/08/20 12:01:59;;;;;;;1.60;1.60;;;;;;;;;;5038727;28;20218;-56
2022/08/20 12:04:25;;;;;;;1.60;1.60;;;;;;;;;;5045891;28;20598;-55
2022/08/20 12:06:51;;;;;;;1.60;1.60;;;;;;;;;;5042489;28;20223;-56
2022/08/20 12:09:17;;;;;;;1.50;1.50;;;;;;;;;;5031188;28;20274;-55
2022/08/20 12:11:44;;;;;;;1.40;1.40;;;;;;;;;;5051148;28;20720;-55
2022/08/20 12:14:10;;;;;;;1.30;1.30;;;;;;;;;;5043909;28;20224;-56
2022/08/20 12:16:37;;;;;;;1.50;1.50;;;;;;;;;;5046296;28;20249;-56
2022/08/20 12:19:03;;;;;;;1.10;1.10;;;;;;;;;;5044258;28;20223;-56
2022/08/20 12:21:29;;;;;;;1.20;1.20;;;;;;;;;;5041905;28;20230;-55
2022/08/20 12:23:55;;;;;;;1.20;1.20;;;;;;;;;;5043739;28;20228;-56
2022/08/20 12:26:21;;;;;;;1.17;1.17;;;;;;;;;;5047996;28;20315;-56
2022/08/20 12:28:47;;;;;;;1.20;1.20;;;;;;;;;;5046647;28;20235;-56
2022/08/20 12:31:13;;;;;;;1.10;1.10;;;;;;;;;;5042519;28;20247;-56
2022/08/20 12:33:39;;;;;;;1.17;1.17;;;;;;;;;;5048115;28;20231;-56
2022/08/20 12:36:05;;;;;;;1.10;1.10;;;;;;;;;;5028295;28;20664;-56
2022/08/20 12:38:31;;;;;;;1.25;1.25;;;;;;;;;;5043238;28;20631;-56
2022/08/20 12:40:57;;;;;;;1.10;1.10;;;;;;;;;;5045659;28;20260;-56
2022/08/20 12:43:23;;;;;;;1.27;1.27;;;;;;;;;;5044743;28;20646;-56
2022/08/20 12:45:49;;;;;;;1.27;1.27;;;;;;;;;;5041034;28;20639;-56
2022/08/20 12:48:15;;;;;;;1.10;1.10;;;;;;;;;;5049202;28;20245;-56
2022/08/20 12:50:41;;;;;;;1.10;1.10;;;;;;;;;;5035773;28;20217;-56
2022/08/20 12:53:07;;;;;;;1.20;1.20;;;;;;;;;;5041710;28;20214;-56
2022/08/20 12:55:33;;;;;;;1.20;1.20;;;;;;;;;;5043837;28;20251;-56
2022/08/20 12:58:00;;;;;;;1.20;1.20;;;;;;;;;;5044962;28;20220;-56
2022/08/20 13:00:26;;;;;;;1.30;1.30;;;;;;;;;;5050073;28;20683;-56
2022/08/20 13:02:52;;;;;;;1.17;1.17;;;;;;;;;;5044505;28;20258;-56
2022/08/20 13:05:18;;;;;;;0.70;0.70;;;;;;;;;;5044118;28;20280;-56
2022/08/20 13:07:45;;;;;;;0.70;0.70;;;;;;;;;;5037567;28;20706;-56
2022/08/20 13:10:11;;;;;;;0.70;0.70;;;;;;;;;;5039624;28;20729;-56
2022/08/20 13:12:37;;;;;;;0.70;0.70;;;;;;;;;;5048879;28;20228;-56
2022/08/20 13:15:04;;;;;;;0.70;0.70;;;;;;;;;;5039810;28;20213;-56
2022/08/20 13:17:30;;;;;;;0.80;0.80;;;;;;;;;;5033061;28;20224;-56
2022/08/20 13:19:56;;;;;;;0.65;0.65;;;;;;;;;;5039362;28;20681;-56
2022/08/20 13:22:21;;;;;;;0.73;0.73;;;;;;;;;;5040513;28;20215;-56
2022/08/20 13:24:47;;;;;;;0.80;0.80;;;;;;;;;;5041237;28;20814;-56
2022/08/20 13:27:15;;;;;;;0.70;0.70;;;;;;;;;;5046202;28;20570;-56
2022/08/20 13:29:47;;;;;;;0.90;0.90;;;;;;;;;;5047683;28;20215;-55
2022/08/20 13:32:13;;;;;;;0.55;0.55;;;;;;;;;;5042409;28;20254;-56
2022/08/20 13:34:39;;;;;;;0.60;0.60;;;;;;;;;;5045701;28;20652;-56
2022/08/20 13:37:15;;;;;;;0.75;0.75;;;;;;;;;;5043950;28;20327;-56
2022/08/20 13:39:41;;;;;;;0.80;0.80;;;;;;;;;;5045991;28;20232;-55
2022/08/20 13:42:07;;;;;;;0.82;0.82;;;;;;;;;;5043347;28;20215;-56
2022/08/20 13:44:33;;;;;;;0.80;0.80;;;;;;;;;;5047755;28;20227;-56
2022/08/20 13:46:59;;;;;;;0.80;0.80;;;;;;;;;;5044038;28;20231;-56
2022/08/20 13:49:26;;;;;;;0.80;0.80;;;;;;;;;;5038520;28;20247;-55
2022/08/20 13:51:52;;;;;;;0.90;0.90;;;;;;;;;;5039738;28;20384;-56
2022/08/20 13:54:18;;;;;;;0.80;0.80;;;;;;;;;;5048705;28;20262;-55
2022/08/20 13:56:44;;;;;;;1.00;1.00;;;;;;;;;;5038732;28;20215;-56
2022/08/20 13:59:09;;;;;;;0.90;0.90;;;;;;;;;;5042956;28;20233;-55
2022/08/20 14:01:35;;;;;;;0.90;0.90;;;;;;;;;;5039681;28;20219;-56
2022/08/20 14:04:01;;;;;;;1.00;1.00;;;;;;;;;;5043388;28;20766;-56
2022/08/20 14:06:27;;;;;;;0.90;0.90;;;;;;;;;;5040411;28;20219;-56
2022/08/20 14:08:53;;;;;;;0.90;0.90;;;;;;;;;;5041779;28;20757;-56
2022/08/20 14:11:20;;;;;;;0.82;0.82;;;;;;;;;;5043342;28;20222;-56
2022/08/20 14:13:46;;;;;;;0.90;0.90;;;;;;;;;;5045010;28;20222;-56
2022/08/20 14:16:12;;;;;;;0.90;0.90;;;;;;;;;;5050537;28;20221;-56
2022/08/20 14:18:38;;;;;;;0.90;0.90;;;;;;;;;;5040427;28;20230;-56
2022/08/20 14:21:04;;;;;;;0.90;0.90;;;;;;;;;;5040750;28;20313;-56
2022/08/20 14:23:30;;;;;;;0.90;0.90;;;;;;;;;;5041678;28;20240;-56
2022/08/20 14:25:56;;;;;;;0.90;0.90;;;;;;;;;;5043709;28;20219;-56
2022/08/20 14:28:23;;;;;;;0.90;0.90;;;;;;;;;;5039150;28;20226;-56
2022/08/20 14:30:49;;;;;;;0.80;0.80;;;;;;;;;;5044083;28;20228;-55
2022/08/20 14:33:15;;;;;;;0.80;0.80;;;;;;;;;;5039097;28;20211;-56
2022/08/20 14:35:41;;;;;;;0.80;0.80;;;;;;;;;;5042197;28;20630;-56
2022/08/20 14:38:07;;;;;;;0.80;0.80;;;;;;;;;;5038205;28;20227;-56
2022/08/20 14:40:33;;;;;;;0.80;0.80;;;;;;;;;;5037772;28;20290;-56
2022/08/20 14:42:59;;;;;;;0.93;0.93;;;;;;;;;;5048072;28;20819;-56
2022/08/20 14:45:25;;;;;;;0.80;0.80;;;;;;;;;;5048874;28;20313;-56